<?xml version="1.0" encoding="UTF-8" standalone="no" ?>
<gpx xmlns="http://www.topografix.com/GPX/1/1" creator="www.plotaroute.com" version="1.1"  xmlns:xsi="http://www.w3.org/2001/XMLSchema-instance" xsi:schemaLocation="http://www.topografix.com/GPX/1/1 http://www.topografix.com/GPX/1/1/gpx.xsd">
<metadata>
<desc>Route created on plotaroute.com</desc>
</metadata>
<trk>
<name>220202-RLE-Bourneheath</name>
<trkseg>
<trkpt lat="52.369405" lon="-1.835223">
<ele>147</ele>
<time>2022-11-17T00:00:00Z</time></trkpt>
<trkpt lat="52.368022" lon="-1.836227">
<ele>145</ele>
<time>2022-11-17T00:02:26Z</time></trkpt>
<trkpt lat="52.365833" lon="-1.833327">
<ele>139</ele>
<time>2022-11-17T00:06:53Z</time></trkpt>
<trkpt lat="52.365169" lon="-1.833858">
<ele>139</ele>
<time>2022-11-17T00:08:07Z</time></trkpt>
<trkpt lat="52.36386" lon="-1.836271">
<ele>145</ele>
<time>2022-11-17T00:12:06Z</time></trkpt>
<trkpt lat="52.360342" lon="-1.841189">
<ele>152</ele>
<time>2022-11-17T00:20:39Z</time></trkpt>
<trkpt lat="52.358352" lon="-1.845675">
<ele>150</ele>
<time>2022-11-17T00:26:21Z</time></trkpt>
<trkpt lat="52.358031" lon="-1.847746">
<ele>153</ele>
<time>2022-11-17T00:28:49Z</time></trkpt>
<trkpt lat="52.356531" lon="-1.848779">
<ele>153</ele>
<time>2022-11-17T00:31:37Z</time></trkpt>
<trkpt lat="52.353888" lon="-1.856173">
<ele>158</ele>
<time>2022-11-17T00:40:57Z</time></trkpt>
<trkpt lat="52.351958" lon="-1.858264">
<ele>156</ele>
<time>2022-11-17T00:44:42Z</time></trkpt>
<trkpt lat="52.351489" lon="-1.857179">
<ele>157</ele>
<time>2022-11-17T00:46:15Z</time></trkpt>
<trkpt lat="52.350463" lon="-1.855876">
<ele>159</ele>
<time>2022-11-17T00:48:38Z</time></trkpt>
<trkpt lat="52.348462" lon="-1.851831">
<ele>157</ele>
<time>2022-11-17T00:53:53Z</time></trkpt>
<trkpt lat="52.346671" lon="-1.850516">
<ele>152</ele>
<time>2022-11-17T00:56:55Z</time></trkpt>
<trkpt lat="52.345735" lon="-1.849139">
<ele>148</ele>
<time>2022-11-17T00:58:52Z</time></trkpt>
<trkpt lat="52.344654" lon="-1.848115">
<ele>147</ele>
<time>2022-11-17T01:00:59Z</time></trkpt>
<trkpt lat="52.341632" lon="-1.846555">
<ele>157</ele>
<time>2022-11-17T01:07:33Z</time></trkpt>
<trkpt lat="52.340303" lon="-1.848335">
<ele>161</ele>
<time>2022-11-17T01:10:43Z</time></trkpt>
<trkpt lat="52.340034" lon="-1.848131">
<ele>160</ele>
<time>2022-11-17T01:11:15Z</time></trkpt>
<trkpt lat="52.339817" lon="-1.847368">
<ele>158</ele>
<time>2022-11-17T01:12:05Z</time></trkpt>
<trkpt lat="52.337996" lon="-1.843441">
<ele>150</ele>
<time>2022-11-17T01:16:39Z</time></trkpt>
<trkpt lat="52.337209" lon="-1.840274">
<ele>133</ele>
<time>2022-11-17T01:19:42Z</time></trkpt>
<trkpt lat="52.335508" lon="-1.838577">
<ele>151</ele>
<time>2022-11-17T01:24:38Z</time></trkpt>
<trkpt lat="52.335004" lon="-1.83833">
<ele>154</ele>
<time>2022-11-17T01:26:03Z</time></trkpt>
<trkpt lat="52.334265" lon="-1.837261">
<ele>159</ele>
<time>2022-11-17T01:28:13Z</time></trkpt>
<trkpt lat="52.333411" lon="-1.837396">
<ele>158</ele>
<time>2022-11-17T01:29:45Z</time></trkpt>
<trkpt lat="52.332872" lon="-1.837149">
<ele>157</ele>
<time>2022-11-17T01:30:39Z</time></trkpt>
<trkpt lat="52.332703" lon="-1.838676">
<ele>156</ele>
<time>2022-11-17T01:32:17Z</time></trkpt>
<trkpt lat="52.331935" lon="-1.842186">
<ele>158</ele>
<time>2022-11-17T01:36:04Z</time></trkpt>
<trkpt lat="52.330712" lon="-1.842307">
<ele>151</ele>
<time>2022-11-17T01:37:56Z</time></trkpt>
<trkpt lat="52.329619" lon="-1.845202">
<ele>156</ele>
<time>2022-11-17T01:41:49Z</time></trkpt>
<trkpt lat="52.328059" lon="-1.848539">
<ele>158</ele>
<time>2022-11-17T01:46:31Z</time></trkpt>
<trkpt lat="52.327572" lon="-1.847542">
<ele>161</ele>
<time>2022-11-17T01:48:00Z</time></trkpt>
<trkpt lat="52.326895" lon="-1.845124">
<ele>160</ele>
<time>2022-11-17T01:50:40Z</time></trkpt>
<trkpt lat="52.326741" lon="-1.844082">
<ele>160</ele>
<time>2022-11-17T01:51:46Z</time></trkpt>
<trkpt lat="52.32671" lon="-1.840957">
<ele>152</ele>
<time>2022-11-17T01:54:43Z</time></trkpt>
<trkpt lat="52.32641" lon="-1.839095">
<ele>149</ele>
<time>2022-11-17T01:56:32Z</time></trkpt>
<trkpt lat="52.325914" lon="-1.837497">
<ele>149</ele>
<time>2022-11-17T01:58:20Z</time></trkpt>
<trkpt lat="52.325265" lon="-1.836707">
<ele>150</ele>
<time>2022-11-17T01:59:53Z</time></trkpt>
<trkpt lat="52.324355" lon="-1.834891">
<ele>147</ele>
<time>2022-11-17T02:02:11Z</time></trkpt>
<trkpt lat="52.3226" lon="-1.833739">
<ele>128</ele>
<time>2022-11-17T02:04:37Z</time></trkpt>
<trkpt lat="52.321133" lon="-1.832204">
<ele>119</ele>
<time>2022-11-17T02:07:13Z</time></trkpt>
<trkpt lat="52.319361" lon="-1.83202">
<ele>125</ele>
<time>2022-11-17T02:10:48Z</time></trkpt>
<trkpt lat="52.317679" lon="-1.83138">
<ele>133</ele>
<time>2022-11-17T02:14:31Z</time></trkpt>
<trkpt lat="52.314721" lon="-1.831289">
<ele>150</ele>
<time>2022-11-17T02:21:30Z</time></trkpt>
<trkpt lat="52.312995" lon="-1.830855">
<ele>147</ele>
<time>2022-11-17T02:24:15Z</time></trkpt>
<trkpt lat="52.31241" lon="-1.830432">
<ele>143</ele>
<time>2022-11-17T02:25:11Z</time></trkpt>
<trkpt lat="52.31167" lon="-1.829056">
<ele>138</ele>
<time>2022-11-17T02:26:50Z</time></trkpt>
<trkpt lat="52.310699" lon="-1.828444">
<ele>134</ele>
<time>2022-11-17T02:28:29Z</time></trkpt>
<trkpt lat="52.308979" lon="-1.826485">
<ele>134</ele>
<time>2022-11-17T02:31:54Z</time></trkpt>
<trkpt lat="52.306972" lon="-1.825276">
<ele>125</ele>
<time>2022-11-17T02:35:09Z</time></trkpt>
<trkpt lat="52.306504" lon="-1.825307">
<ele>124</ele>
<time>2022-11-17T02:35:51Z</time></trkpt>
<trkpt lat="52.305468" lon="-1.823698">
<ele>115</ele>
<time>2022-11-17T02:37:52Z</time></trkpt>
<trkpt lat="52.304109" lon="-1.822456">
<ele>109</ele>
<time>2022-11-17T02:40:13Z</time></trkpt>
<trkpt lat="52.303146" lon="-1.821888">
<ele>105</ele>
<time>2022-11-17T02:41:46Z</time></trkpt>
<trkpt lat="52.303004" lon="-1.823194">
<ele>108</ele>
<time>2022-11-17T02:43:28Z</time></trkpt>
<trkpt lat="52.303204" lon="-1.824777">
<ele>111</ele>
<time>2022-11-17T02:45:22Z</time></trkpt>
<trkpt lat="52.303061" lon="-1.825423">
<ele>111</ele>
<time>2022-11-17T02:46:04Z</time></trkpt>
<trkpt lat="52.300914" lon="-1.826311">
<ele>108</ele>
<time>2022-11-17T02:49:40Z</time></trkpt>
<trkpt lat="52.300304" lon="-1.82693">
<ele>108</ele>
<time>2022-11-17T02:50:50Z</time></trkpt>
<trkpt lat="52.300036" lon="-1.828529">
<ele>111</ele>
<time>2022-11-17T02:52:47Z</time></trkpt>
<trkpt lat="52.299176" lon="-1.830263">
<ele>105</ele>
<time>2022-11-17T02:55:08Z</time></trkpt>
<trkpt lat="52.300926" lon="-1.834494">
<ele>106</ele>
<time>2022-11-17T03:00:28Z</time></trkpt>
<trkpt lat="52.301116" lon="-1.835476">
<ele>106</ele>
<time>2022-11-17T03:01:33Z</time></trkpt>
<trkpt lat="52.301127" lon="-1.836635">
<ele>106</ele>
<time>2022-11-17T03:02:44Z</time></trkpt>
<trkpt lat="52.300984" lon="-1.837603">
<ele>106</ele>
<time>2022-11-17T03:03:50Z</time></trkpt>
<trkpt lat="52.300617" lon="-1.83866">
<ele>107</ele>
<time>2022-11-17T03:05:12Z</time></trkpt>
<trkpt lat="52.299191" lon="-1.840968">
<ele>114</ele>
<time>2022-11-17T03:09:11Z</time></trkpt>
<trkpt lat="52.298581" lon="-1.842421">
<ele>115</ele>
<time>2022-11-17T03:11:15Z</time></trkpt>
<trkpt lat="52.298358" lon="-1.843537">
<ele>117</ele>
<time>2022-11-17T03:12:39Z</time></trkpt>
<trkpt lat="52.297567" lon="-1.850739">
<ele>128</ele>
<time>2022-11-17T03:21:17Z</time></trkpt>
<trkpt lat="52.296561" lon="-1.851021">
<ele>131</ele>
<time>2022-11-17T03:23:21Z</time></trkpt>
<trkpt lat="52.295311" lon="-1.850967">
<ele>128</ele>
<time>2022-11-17T03:25:20Z</time></trkpt>
<trkpt lat="52.290478" lon="-1.853783">
<ele>100</ele>
<time>2022-11-17T03:32:47Z</time></trkpt>
<trkpt lat="52.288897" lon="-1.85502">
<ele>94</ele>
<time>2022-11-17T03:35:31Z</time></trkpt>
<trkpt lat="52.286474" lon="-1.859001">
<ele>90</ele>
<time>2022-11-17T03:41:07Z</time></trkpt>
<trkpt lat="52.286268" lon="-1.859573">
<ele>89</ele>
<time>2022-11-17T03:41:45Z</time></trkpt>
<trkpt lat="52.286027" lon="-1.861304">
<ele>85</ele>
<time>2022-11-17T03:43:24Z</time></trkpt>
<trkpt lat="52.285418" lon="-1.862889">
<ele>82</ele>
<time>2022-11-17T03:45:15Z</time></trkpt>
<trkpt lat="52.283767" lon="-1.86565">
<ele>89</ele>
<time>2022-11-17T03:49:58Z</time></trkpt>
<trkpt lat="52.282895" lon="-1.866048">
<ele>89</ele>
<time>2022-11-17T03:51:27Z</time></trkpt>
<trkpt lat="52.28242" lon="-1.866973">
<ele>88</ele>
<time>2022-11-17T03:52:43Z</time></trkpt>
<trkpt lat="52.282008" lon="-1.868631">
<ele>89</ele>
<time>2022-11-17T03:54:39Z</time></trkpt>
<trkpt lat="52.28104" lon="-1.871243">
<ele>92</ele>
<time>2022-11-17T03:57:58Z</time></trkpt>
<trkpt lat="52.280521" lon="-1.873428">
<ele>84</ele>
<time>2022-11-17T04:00:07Z</time></trkpt>
<trkpt lat="52.28037" lon="-1.874821">
<ele>78</ele>
<time>2022-11-17T04:01:17Z</time></trkpt>
<trkpt lat="52.278305" lon="-1.878242">
<ele>67</ele>
<time>2022-11-17T04:05:44Z</time></trkpt>
<trkpt lat="52.276652" lon="-1.879317">
<ele>64</ele>
<time>2022-11-17T04:08:34Z</time></trkpt>
<trkpt lat="52.273735" lon="-1.884073">
<ele>63</ele>
<time>2022-11-17T04:15:33Z</time></trkpt>
<trkpt lat="52.273718" lon="-1.884747">
<ele>63</ele>
<time>2022-11-17T04:16:15Z</time></trkpt>
<trkpt lat="52.274781" lon="-1.887353">
<ele>64</ele>
<time>2022-11-17T04:19:33Z</time></trkpt>
<trkpt lat="52.273534" lon="-1.889393">
<ele>65</ele>
<time>2022-11-17T04:22:41Z</time></trkpt>
<trkpt lat="52.272163" lon="-1.894438">
<ele>77</ele>
<time>2022-11-17T04:29:30Z</time></trkpt>
<trkpt lat="52.271461" lon="-1.894205">
<ele>78</ele>
<time>2022-11-17T04:31:00Z</time></trkpt>
<trkpt lat="52.271327" lon="-1.894953">
<ele>80</ele>
<time>2022-11-17T04:31:55Z</time></trkpt>
<trkpt lat="52.270617" lon="-1.894984">
<ele>80</ele>
<time>2022-11-17T04:33:10Z</time></trkpt>
<trkpt lat="52.270356" lon="-1.89519">
<ele>80</ele>
<time>2022-11-17T04:33:40Z</time></trkpt>
<trkpt lat="52.266822" lon="-1.893747">
<ele>79</ele>
<time>2022-11-17T04:39:47Z</time></trkpt>
<trkpt lat="52.266682" lon="-1.898642">
<ele>80</ele>
<time>2022-11-17T04:44:49Z</time></trkpt>
<trkpt lat="52.264714" lon="-1.899628">
<ele>78</ele>
<time>2022-11-17T04:48:10Z</time></trkpt>
<trkpt lat="52.261543" lon="-1.902668">
<ele>77</ele>
<time>2022-11-17T04:54:17Z</time></trkpt>
<trkpt lat="52.260043" lon="-1.904576">
<ele>80</ele>
<time>2022-11-17T04:57:44Z</time></trkpt>
<trkpt lat="52.259334" lon="-1.905999">
<ele>79</ele>
<time>2022-11-17T04:59:39Z</time></trkpt>
<trkpt lat="52.258364" lon="-1.907275">
<ele>80</ele>
<time>2022-11-17T05:01:50Z</time></trkpt>
<trkpt lat="52.256587" lon="-1.910634">
<ele>87</ele>
<time>2022-11-17T05:07:10Z</time></trkpt>
<trkpt lat="52.255841" lon="-1.911573">
<ele>87</ele>
<time>2022-11-17T05:08:44Z</time></trkpt>
<trkpt lat="52.254952" lon="-1.911956">
<ele>85</ele>
<time>2022-11-17T05:10:16Z</time></trkpt>
<trkpt lat="52.254754" lon="-1.91285">
<ele>87</ele>
<time>2022-11-17T05:11:15Z</time></trkpt>
<trkpt lat="52.257247" lon="-1.915482">
<ele>94</ele>
<time>2022-11-17T05:16:54Z</time></trkpt>
<trkpt lat="52.256556" lon="-1.91752">
<ele>95</ele>
<time>2022-11-17T05:19:34Z</time></trkpt>
<trkpt lat="52.256541" lon="-1.922867">
<ele>104</ele>
<time>2022-11-17T05:25:58Z</time></trkpt>
<trkpt lat="52.256246" lon="-1.924669">
<ele>106</ele>
<time>2022-11-17T05:28:11Z</time></trkpt>
<trkpt lat="52.256912" lon="-1.925826">
<ele>108</ele>
<time>2022-11-17T05:30:03Z</time></trkpt>
<trkpt lat="52.258389" lon="-1.930819">
<ele>121</ele>
<time>2022-11-17T05:37:16Z</time></trkpt>
<trkpt lat="52.258984" lon="-1.932268">
<ele>127</ele>
<time>2022-11-17T05:39:43Z</time></trkpt>
<trkpt lat="52.260381" lon="-1.93968">
<ele>143</ele>
<time>2022-11-17T05:49:47Z</time></trkpt>
<trkpt lat="52.261218" lon="-1.940631">
<ele>142</ele>
<time>2022-11-17T05:51:24Z</time></trkpt>
<trkpt lat="52.261947" lon="-1.94252">
<ele>140</ele>
<time>2022-11-17T05:53:38Z</time></trkpt>
<trkpt lat="52.261436" lon="-1.946447">
<ele>133</ele>
<time>2022-11-17T05:57:24Z</time></trkpt>
<trkpt lat="52.261394" lon="-1.952294">
<ele>107</ele>
<time>2022-11-17T06:02:20Z</time></trkpt>
<trkpt lat="52.261224" lon="-1.954565">
<ele>100</ele>
<time>2022-11-17T06:04:23Z</time></trkpt>
<trkpt lat="52.260928" lon="-1.956206">
<ele>96</ele>
<time>2022-11-17T06:05:59Z</time></trkpt>
<trkpt lat="52.261423" lon="-1.958022">
<ele>93</ele>
<time>2022-11-17T06:07:54Z</time></trkpt>
<trkpt lat="52.261972" lon="-1.958813">
<ele>92</ele>
<time>2022-11-17T06:09:03Z</time></trkpt>
<trkpt lat="52.262188" lon="-1.960351">
<ele>91</ele>
<time>2022-11-17T06:10:38Z</time></trkpt>
<trkpt lat="52.262161" lon="-1.961289">
<ele>91</ele>
<time>2022-11-17T06:11:35Z</time></trkpt>
<trkpt lat="52.261622" lon="-1.963487">
<ele>91</ele>
<time>2022-11-17T06:14:07Z</time></trkpt>
<trkpt lat="52.261524" lon="-1.964352">
<ele>93</ele>
<time>2022-11-17T06:15:04Z</time></trkpt>
<trkpt lat="52.261623" lon="-1.965758">
<ele>93</ele>
<time>2022-11-17T06:16:35Z</time></trkpt>
<trkpt lat="52.260644" lon="-1.969319">
<ele>88</ele>
<time>2022-11-17T06:20:23Z</time></trkpt>
<trkpt lat="52.261975" lon="-1.971575">
<ele>88</ele>
<time>2022-11-17T06:23:31Z</time></trkpt>
<trkpt lat="52.262794" lon="-1.974314">
<ele>81</ele>
<time>2022-11-17T06:26:22Z</time></trkpt>
<trkpt lat="52.263828" lon="-1.976629">
<ele>74</ele>
<time>2022-11-17T06:29:03Z</time></trkpt>
<trkpt lat="52.264638" lon="-1.977068">
<ele>77</ele>
<time>2022-11-17T06:30:52Z</time></trkpt>
<trkpt lat="52.265734" lon="-1.977302">
<ele>83</ele>
<time>2022-11-17T06:33:21Z</time></trkpt>
<trkpt lat="52.266553" lon="-1.978547">
<ele>88</ele>
<time>2022-11-17T06:35:49Z</time></trkpt>
<trkpt lat="52.267218" lon="-1.979924">
<ele>93</ele>
<time>2022-11-17T06:38:16Z</time></trkpt>
<trkpt lat="52.268306" lon="-1.980993">
<ele>97</ele>
<time>2022-11-17T06:40:45Z</time></trkpt>
<trkpt lat="52.269125" lon="-1.981359">
<ele>97</ele>
<time>2022-11-17T06:42:12Z</time></trkpt>
<trkpt lat="52.270464" lon="-1.982546">
<ele>95</ele>
<time>2022-11-17T06:44:39Z</time></trkpt>
<trkpt lat="52.271183" lon="-1.982457">
<ele>93</ele>
<time>2022-11-17T06:45:49Z</time></trkpt>
<trkpt lat="52.272308" lon="-1.984611">
<ele>95</ele>
<time>2022-11-17T06:48:59Z</time></trkpt>
<trkpt lat="52.272182" lon="-1.985681">
<ele>98</ele>
<time>2022-11-17T06:50:23Z</time></trkpt>
<trkpt lat="52.272659" lon="-1.989066">
<ele>112</ele>
<time>2022-11-17T06:55:27Z</time></trkpt>
<trkpt lat="52.273261" lon="-1.989476">
<ele>113</ele>
<time>2022-11-17T06:56:41Z</time></trkpt>
<trkpt lat="52.272362" lon="-1.996511">
<ele>84</ele>
<time>2022-11-17T07:02:53Z</time></trkpt>
<trkpt lat="52.272398" lon="-1.996966">
<ele>83</ele>
<time>2022-11-17T07:03:19Z</time></trkpt>
<trkpt lat="52.272713" lon="-1.998372">
<ele>82</ele>
<time>2022-11-17T07:04:45Z</time></trkpt>
<trkpt lat="52.273208" lon="-1.999735">
<ele>80</ele>
<time>2022-11-17T07:06:18Z</time></trkpt>
<trkpt lat="52.273585" lon="-2.00186">
<ele>76</ele>
<time>2022-11-17T07:08:22Z</time></trkpt>
<trkpt lat="52.273468" lon="-2.002652">
<ele>74</ele>
<time>2022-11-17T07:09:11Z</time></trkpt>
<trkpt lat="52.273567" lon="-2.003297">
<ele>74</ele>
<time>2022-11-17T07:09:51Z</time></trkpt>
<trkpt lat="52.274664" lon="-2.005862">
<ele>75</ele>
<time>2022-11-17T07:13:03Z</time></trkpt>
<trkpt lat="52.274799" lon="-2.005906">
<ele>75</ele>
<time>2022-11-17T07:13:16Z</time></trkpt>
<trkpt lat="52.274304" lon="-2.006961">
<ele>72</ele>
<time>2022-11-17T07:14:33Z</time></trkpt>
<trkpt lat="52.275005" lon="-2.008544">
<ele>71</ele>
<time>2022-11-17T07:16:29Z</time></trkpt>
<trkpt lat="52.275428" lon="-2.00998">
<ele>71</ele>
<time>2022-11-17T07:18:08Z</time></trkpt>
<trkpt lat="52.275697" lon="-2.011035">
<ele>72</ele>
<time>2022-11-17T07:19:21Z</time></trkpt>
<trkpt lat="52.275886" lon="-2.013102">
<ele>74</ele>
<time>2022-11-17T07:21:41Z</time></trkpt>
<trkpt lat="52.27621" lon="-2.013175">
<ele>75</ele>
<time>2022-11-17T07:22:18Z</time></trkpt>
<trkpt lat="52.276452" lon="-2.017734">
<ele>77</ele>
<time>2022-11-17T07:27:23Z</time></trkpt>
<trkpt lat="52.278015" lon="-2.022967">
<ele>73</ele>
<time>2022-11-17T07:33:15Z</time></trkpt>
<trkpt lat="52.277898" lon="-2.025854">
<ele>79</ele>
<time>2022-11-17T07:36:45Z</time></trkpt>
<trkpt lat="52.277411" lon="-2.029078">
<ele>87</ele>
<time>2022-11-17T07:41:01Z</time></trkpt>
<trkpt lat="52.277717" lon="-2.030676">
<ele>87</ele>
<time>2022-11-17T07:42:59Z</time></trkpt>
<trkpt lat="52.277779" lon="-2.031805">
<ele>89</ele>
<time>2022-11-17T07:44:20Z</time></trkpt>
<trkpt lat="52.277606" lon="-2.040452">
<ele>102</ele>
<time>2022-11-17T07:54:36Z</time></trkpt>
<trkpt lat="52.27739" lon="-2.041156">
<ele>102</ele>
<time>2022-11-17T07:55:25Z</time></trkpt>
<trkpt lat="52.2758922" lon="-2.0454965">
<ele>99</ele>
<time>2022-11-17T08:00:21Z</time></trkpt>
<trkpt lat="52.2762501" lon="-2.0498206">
<ele>82</ele>
<time>2022-11-17T08:04:10Z</time></trkpt>
<trkpt lat="52.2751244" lon="-2.0540696">
<ele>89</ele>
<time>2022-11-17T08:09:51Z</time></trkpt>
<trkpt lat="52.2749878" lon="-2.0577334">
<ele>99</ele>
<time>2022-11-17T08:14:40Z</time></trkpt>
<trkpt lat="52.2755" lon="-2.06009">
<ele>99</ele>
<time>2022-11-17T08:17:19Z</time></trkpt>
<trkpt lat="52.27628" lon="-2.06195">
<ele>89</ele>
<time>2022-11-17T08:19:19Z</time></trkpt>
<trkpt lat="52.27659" lon="-2.061366">
<ele>95</ele>
<time>2022-11-17T08:20:03Z</time></trkpt>
<trkpt lat="52.276257" lon="-2.061879">
<ele>89</ele>
<time>2022-11-17T08:20:47Z</time></trkpt>
<trkpt lat="52.276345" lon="-2.06481">
<ele>82</ele>
<time>2022-11-17T08:23:31Z</time></trkpt>
<trkpt lat="52.27566" lon="-2.068297">
<ele>86</ele>
<time>2022-11-17T08:27:41Z</time></trkpt>
<trkpt lat="52.2761" lon="-2.069647">
<ele>97</ele>
<time>2022-11-17T08:30:43Z</time></trkpt>
<trkpt lat="52.277214" lon="-2.069722">
<ele>113</ele>
<time>2022-11-17T08:33:18Z</time></trkpt>
<trkpt lat="52.277205" lon="-2.071041">
<ele>102</ele>
<time>2022-11-17T08:34:38Z</time></trkpt>
<trkpt lat="52.277545" lon="-2.072536">
<ele>91</ele>
<time>2022-11-17T08:35:47Z</time></trkpt>
<trkpt lat="52.278668" lon="-2.075147">
<ele>78</ele>
<time>2022-11-17T08:38:30Z</time></trkpt>
<trkpt lat="52.279529" lon="-2.077933">
<ele>69</ele>
<time>2022-11-17T08:41:19Z</time></trkpt>
<trkpt lat="52.279906" lon="-2.07852">
<ele>66</ele>
<time>2022-11-17T08:42:04Z</time></trkpt>
<trkpt lat="52.280329" lon="-2.078463">
<ele>66</ele>
<time>2022-11-17T08:42:42Z</time></trkpt>
<trkpt lat="52.280696" lon="-2.080046">
<ele>60</ele>
<time>2022-11-17T08:44:16Z</time></trkpt>
<trkpt lat="52.281585" lon="-2.082247">
<ele>60</ele>
<time>2022-11-17T08:46:59Z</time></trkpt>
<trkpt lat="52.282094" lon="-2.085898">
<ele>60</ele>
<time>2022-11-17T08:50:54Z</time></trkpt>
<trkpt lat="52.282417" lon="-2.086778">
<ele>61</ele>
<time>2022-11-17T08:51:57Z</time></trkpt>
<trkpt lat="52.28219" lon="-2.090134">
<ele>60</ele>
<time>2022-11-17T08:55:23Z</time></trkpt>
<trkpt lat="52.282575" lon="-2.092891">
<ele>53</ele>
<time>2022-11-17T08:58:05Z</time></trkpt>
<trkpt lat="52.28462" lon="-2.098803">
<ele>59</ele>
<time>2022-11-17T09:05:38Z</time></trkpt>
<trkpt lat="52.284988" lon="-2.099346">
<ele>60</ele>
<time>2022-11-17T09:06:35Z</time></trkpt>
<trkpt lat="52.286234" lon="-2.103439">
<ele>51</ele>
<time>2022-11-17T09:10:58Z</time></trkpt>
<trkpt lat="52.286701" lon="-2.103293">
<ele>51</ele>
<time>2022-11-17T09:12:01Z</time></trkpt>
<trkpt lat="52.289665" lon="-2.106775">
<ele>67</ele>
<time>2022-11-17T09:19:43Z</time></trkpt>
<trkpt lat="52.289782" lon="-2.107039">
<ele>66</ele>
<time>2022-11-17T09:20:03Z</time></trkpt>
<trkpt lat="52.288854" lon="-2.108591">
<ele>67</ele>
<time>2022-11-17T09:22:15Z</time></trkpt>
<trkpt lat="52.290012" lon="-2.110602">
<ele>61</ele>
<time>2022-11-17T09:24:50Z</time></trkpt>
<trkpt lat="52.290407" lon="-2.111835">
<ele>59</ele>
<time>2022-11-17T09:26:11Z</time></trkpt>
<trkpt lat="52.2924" lon="-2.114816">
<ele>53</ele>
<time>2022-11-17T09:30:26Z</time></trkpt>
<trkpt lat="52.29504" lon="-2.117638">
<ele>49</ele>
<time>2022-11-17T09:35:31Z</time></trkpt>
<trkpt lat="52.295874" lon="-2.119429">
<ele>47</ele>
<time>2022-11-17T09:37:45Z</time></trkpt>
<trkpt lat="52.295928" lon="-2.119972">
<ele>46</ele>
<time>2022-11-17T09:38:16Z</time></trkpt>
<trkpt lat="52.295684" lon="-2.120924">
<ele>45</ele>
<time>2022-11-17T09:39:16Z</time></trkpt>
<trkpt lat="52.295719" lon="-2.121745">
<ele>45</ele>
<time>2022-11-17T09:40:05Z</time></trkpt>
<trkpt lat="52.294972" lon="-2.122491">
<ele>43</ele>
<time>2022-11-17T09:41:33Z</time></trkpt>
<trkpt lat="52.294909" lon="-2.123034">
<ele>44</ele>
<time>2022-11-17T09:42:19Z</time></trkpt>
<trkpt lat="52.298104" lon="-2.128292">
<ele>47</ele>
<time>2022-11-17T09:50:35Z</time></trkpt>
<trkpt lat="52.299332" lon="-2.13092">
<ele>46</ele>
<time>2022-11-17T09:53:53Z</time></trkpt>
<trkpt lat="52.299339" lon="-2.132563">
<ele>46</ele>
<time>2022-11-17T09:55:33Z</time></trkpt>
<trkpt lat="52.301982" lon="-2.133377">
<ele>45</ele>
<time>2022-11-17T09:59:58Z</time></trkpt>
<trkpt lat="52.302727" lon="-2.134157">
<ele>44</ele>
<time>2022-11-17T10:01:34Z</time></trkpt>
<trkpt lat="52.304038" lon="-2.135085">
<ele>49</ele>
<time>2022-11-17T10:04:21Z</time></trkpt>
<trkpt lat="52.305106" lon="-2.137024">
<ele>53</ele>
<time>2022-11-17T10:07:23Z</time></trkpt>
<trkpt lat="52.306717" lon="-2.135738">
<ele>48</ele>
<time>2022-11-17T10:10:16Z</time></trkpt>
<trkpt lat="52.307206" lon="-2.132718">
<ele>52</ele>
<time>2022-11-17T10:13:49Z</time></trkpt>
<trkpt lat="52.307539" lon="-2.131839">
<ele>53</ele>
<time>2022-11-17T10:15:05Z</time></trkpt>
<trkpt lat="52.308287" lon="-2.130595">
<ele>54</ele>
<time>2022-11-17T10:17:03Z</time></trkpt>
<trkpt lat="52.309251" lon="-2.128427">
<ele>58</ele>
<time>2022-11-17T10:20:11Z</time></trkpt>
<trkpt lat="52.311448" lon="-2.125778">
<ele>64</ele>
<time>2022-11-17T10:25:22Z</time></trkpt>
<trkpt lat="52.31537" lon="-2.123589">
<ele>76</ele>
<time>2022-11-17T10:33:45Z</time></trkpt>
<trkpt lat="52.3169" lon="-2.121965">
<ele>69</ele>
<time>2022-11-17T10:36:36Z</time></trkpt>
<trkpt lat="52.318026" lon="-2.1199">
<ele>71</ele>
<time>2022-11-17T10:39:29Z</time></trkpt>
<trkpt lat="52.318853" lon="-2.119344">
<ele>72</ele>
<time>2022-11-17T10:41:09Z</time></trkpt>
<trkpt lat="52.31978" lon="-2.119171">
<ele>74</ele>
<time>2022-11-17T10:42:55Z</time></trkpt>
<trkpt lat="52.320624" lon="-2.119687">
<ele>75</ele>
<time>2022-11-17T10:44:30Z</time></trkpt>
<trkpt lat="52.322305" lon="-2.119941">
<ele>74</ele>
<time>2022-11-17T10:47:18Z</time></trkpt>
<trkpt lat="52.323604" lon="-2.116027">
<ele>79</ele>
<time>2022-11-17T10:52:19Z</time></trkpt>
<trkpt lat="52.324844" lon="-2.11581">
<ele>79</ele>
<time>2022-11-17T10:54:30Z</time></trkpt>
<trkpt lat="52.326518" lon="-2.114552">
<ele>83</ele>
<time>2022-11-17T10:58:01Z</time></trkpt>
<trkpt lat="52.327454" lon="-2.113557">
<ele>84</ele>
<time>2022-11-17T11:00:02Z</time></trkpt>
<trkpt lat="52.327715" lon="-2.113205">
<ele>84</ele>
<time>2022-11-17T11:00:36Z</time></trkpt>
<trkpt lat="52.329175" lon="-2.109042">
<ele>88</ele>
<time>2022-11-17T11:06:01Z</time></trkpt>
<trkpt lat="52.330299" lon="-2.108839">
<ele>91</ele>
<time>2022-11-17T11:08:01Z</time></trkpt>
<trkpt lat="52.331244" lon="-2.107506">
<ele>84</ele>
<time>2022-11-17T11:09:56Z</time></trkpt>
<trkpt lat="52.331569" lon="-2.106714">
<ele>81</ele>
<time>2022-11-17T11:10:47Z</time></trkpt>
<trkpt lat="52.331867" lon="-2.104367">
<ele>78</ele>
<time>2022-11-17T11:13:06Z</time></trkpt>
<trkpt lat="52.3337" lon="-2.105942">
<ele>74</ele>
<time>2022-11-17T11:16:25Z</time></trkpt>
<trkpt lat="52.334482" lon="-2.106369">
<ele>75</ele>
<time>2022-11-17T11:17:48Z</time></trkpt>
<trkpt lat="52.335596" lon="-2.106592">
<ele>77</ele>
<time>2022-11-17T11:19:52Z</time></trkpt>
<trkpt lat="52.336514" lon="-2.10633">
<ele>78</ele>
<time>2022-11-17T11:21:27Z</time></trkpt>
<trkpt lat="52.339991" lon="-2.107968">
<ele>77</ele>
<time>2022-11-17T11:27:38Z</time></trkpt>
<trkpt lat="52.341537" lon="-2.108221">
<ele>85</ele>
<time>2022-11-17T11:30:48Z</time></trkpt>
<trkpt lat="52.342023" lon="-2.108031">
<ele>85</ele>
<time>2022-11-17T11:31:46Z</time></trkpt>
<trkpt lat="52.342401" lon="-2.107548">
<ele>85</ele>
<time>2022-11-17T11:32:40Z</time></trkpt>
<trkpt lat="52.342942" lon="-2.10545">
<ele>86</ele>
<time>2022-11-17T11:35:06Z</time></trkpt>
<trkpt lat="52.342997" lon="-2.104672">
<ele>87</ele>
<time>2022-11-17T11:35:57Z</time></trkpt>
<trkpt lat="52.345047" lon="-2.104105">
<ele>89</ele>
<time>2022-11-17T11:39:44Z</time></trkpt>
<trkpt lat="52.34655" lon="-2.102993">
<ele>93</ele>
<time>2022-11-17T11:42:59Z</time></trkpt>
<trkpt lat="52.347009" lon="-2.102113">
<ele>96</ele>
<time>2022-11-17T11:44:28Z</time></trkpt>
<trkpt lat="52.347523" lon="-2.100176">
<ele>102</ele>
<time>2022-11-17T11:47:06Z</time></trkpt>
<trkpt lat="52.348663" lon="-2.102307">
<ele>97</ele>
<time>2022-11-17T11:49:56Z</time></trkpt>
<trkpt lat="52.34904" lon="-2.10269">
<ele>96</ele>
<time>2022-11-17T11:50:40Z</time></trkpt>
<trkpt lat="52.349885" lon="-2.102604">
<ele>97</ele>
<time>2022-11-17T11:52:05Z</time></trkpt>
<trkpt lat="52.35065" lon="-2.10196">
<ele>100</ele>
<time>2022-11-17T11:53:35Z</time></trkpt>
<trkpt lat="52.351072" lon="-2.102049">
<ele>98</ele>
<time>2022-11-17T11:54:20Z</time></trkpt>
<trkpt lat="52.351783" lon="-2.101816">
<ele>96</ele>
<time>2022-11-17T11:55:44Z</time></trkpt>
<trkpt lat="52.351783" lon="-2.101375">
<ele>98</ele>
<time>2022-11-17T11:56:15Z</time></trkpt>
<trkpt lat="52.352568" lon="-2.098499">
<ele>103</ele>
<time>2022-11-17T11:59:50Z</time></trkpt>
<trkpt lat="52.35327" lon="-2.097591">
<ele>110</ele>
<time>2022-11-17T12:02:07Z</time></trkpt>
<trkpt lat="52.354379" lon="-2.093893">
<ele>124</ele>
<time>2022-11-17T12:07:56Z</time></trkpt>
<trkpt lat="52.355829" lon="-2.090372">
<ele>128</ele>
<time>2022-11-17T12:12:54Z</time></trkpt>
<trkpt lat="52.357275" lon="-2.091829">
<ele>128</ele>
<time>2022-11-17T12:15:48Z</time></trkpt>
<trkpt lat="52.358139" lon="-2.090142">
<ele>131</ele>
<time>2022-11-17T12:18:20Z</time></trkpt>
<trkpt lat="52.358518" lon="-2.088807">
<ele>133</ele>
<time>2022-11-17T12:20:08Z</time></trkpt>
<trkpt lat="52.361963" lon="-2.086346">
<ele>154</ele>
<time>2022-11-17T12:28:51Z</time></trkpt>
<trkpt lat="52.363069" lon="-2.085835">
<ele>163</ele>
<time>2022-11-17T12:31:42Z</time></trkpt>
<trkpt lat="52.364014" lon="-2.084999">
<ele>171</ele>
<time>2022-11-17T12:34:26Z</time></trkpt>
<trkpt lat="52.364635" lon="-2.083782">
<ele>167</ele>
<time>2022-11-17T12:35:58Z</time></trkpt>
<trkpt lat="52.364654" lon="-2.082313">
<ele>164</ele>
<time>2022-11-17T12:37:19Z</time></trkpt>
<trkpt lat="52.365159" lon="-2.080625">
<ele>160</ele>
<time>2022-11-17T12:39:03Z</time></trkpt>
<trkpt lat="52.364647" lon="-2.080081">
<ele>158</ele>
<time>2022-11-17T12:40:03Z</time></trkpt>
<trkpt lat="52.365015" lon="-2.080478">
<ele>159</ele>
<time>2022-11-17T12:40:46Z</time></trkpt>
<trkpt lat="52.364281" lon="-2.07566">
<ele>145</ele>
<time>2022-11-17T12:45:20Z</time></trkpt>
<trkpt lat="52.364354" lon="-2.073296">
<ele>147</ele>
<time>2022-11-17T12:47:49Z</time></trkpt>
<trkpt lat="52.364535" lon="-2.0724">
<ele>148</ele>
<time>2022-11-17T12:48:55Z</time></trkpt>
<trkpt lat="52.365146" lon="-2.071711">
<ele>150</ele>
<time>2022-11-17T12:50:15Z</time></trkpt>
<trkpt lat="52.366614" lon="-2.067278">
<ele>142</ele>
<time>2022-11-17T12:55:01Z</time></trkpt>
<trkpt lat="52.365761" lon="-2.065808">
<ele>136</ele>
<time>2022-11-17T12:56:53Z</time></trkpt>
<trkpt lat="52.363991" lon="-2.064542">
<ele>129</ele>
<time>2022-11-17T12:59:50Z</time></trkpt>
<trkpt lat="52.36373" lon="-2.063852">
<ele>126</ele>
<time>2022-11-17T13:00:37Z</time></trkpt>
<trkpt lat="52.363624" lon="-2.060357">
<ele>128</ele>
<time>2022-11-17T13:04:26Z</time></trkpt>
<trkpt lat="52.364155" lon="-2.060049">
<ele>129</ele>
<time>2022-11-17T13:05:31Z</time></trkpt>
<trkpt lat="52.364092" lon="-2.059476">
<ele>130</ele>
<time>2022-11-17T13:06:12Z</time></trkpt>
<trkpt lat="52.364228" lon="-2.05814">
<ele>132</ele>
<time>2022-11-17T13:07:48Z</time></trkpt>
<trkpt lat="52.364067" lon="-2.056921">
<ele>134</ele>
<time>2022-11-17T13:09:16Z</time></trkpt>
<trkpt lat="52.363564" lon="-2.055598">
<ele>135</ele>
<time>2022-11-17T13:11:07Z</time></trkpt>
<trkpt lat="52.363681" lon="-2.054189">
<ele>138</ele>
<time>2022-11-17T13:12:49Z</time></trkpt>
<trkpt lat="52.364303" lon="-2.051693">
<ele>145</ele>
<time>2022-11-17T13:16:17Z</time></trkpt>
<trkpt lat="52.365374" lon="-2.048831">
<ele>150</ele>
<time>2022-11-17T13:20:27Z</time></trkpt>
<trkpt lat="52.36597" lon="-2.042296">
<ele>162</ele>
<time>2022-11-17T13:28:30Z</time></trkpt>
<trkpt lat="52.365575" lon="-2.038918">
<ele>169</ele>
<time>2022-11-17T13:32:47Z</time></trkpt>
<trkpt lat="52.364578" lon="-2.037507">
<ele>169</ele>
<time>2022-11-17T13:35:02Z</time></trkpt>
<trkpt lat="52.363895" lon="-2.035862">
<ele>161</ele>
<time>2022-11-17T13:36:48Z</time></trkpt>
<trkpt lat="52.361055" lon="-2.033289">
<ele>149</ele>
<time>2022-11-17T13:41:46Z</time></trkpt>
<trkpt lat="52.359627" lon="-2.029617">
<ele>148</ele>
<time>2022-11-17T13:46:07Z</time></trkpt>
<trkpt lat="52.358962" lon="-2.026577">
<ele>157</ele>
<time>2022-11-17T13:50:25Z</time></trkpt>
<trkpt lat="52.358774" lon="-2.025403">
<ele>161</ele>
<time>2022-11-17T13:52:07Z</time></trkpt>
<trkpt lat="52.358891" lon="-2.02295">
<ele>166</ele>
<time>2022-11-17T13:55:06Z</time></trkpt>
<trkpt lat="52.359062" lon="-2.021864">
<ele>165</ele>
<time>2022-11-17T13:56:23Z</time></trkpt>
<trkpt lat="52.360366" lon="-2.0179">
<ele>176</ele>
<time>2022-11-17T14:02:12Z</time></trkpt>
<trkpt lat="52.360501" lon="-2.015785">
<ele>183</ele>
<time>2022-11-17T14:05:14Z</time></trkpt>
<trkpt lat="52.361095" lon="-2.01138">
<ele>200</ele>
<time>2022-11-17T14:11:30Z</time></trkpt>
<trkpt lat="52.360637" lon="-2.009368">
<ele>201</ele>
<time>2022-11-17T14:14:11Z</time></trkpt>
<trkpt lat="52.360799" lon="-2.007254">
<ele>206</ele>
<time>2022-11-17T14:16:49Z</time></trkpt>
<trkpt lat="52.360583" lon="-2.003876">
<ele>213</ele>
<time>2022-11-17T14:20:59Z</time></trkpt>
<trkpt lat="52.359927" lon="-2.001439">
<ele>213</ele>
<time>2022-11-17T14:23:51Z</time></trkpt>
<trkpt lat="52.359729" lon="-2.000088">
<ele>212</ele>
<time>2022-11-17T14:25:09Z</time></trkpt>
<trkpt lat="52.360197" lon="-1.995227">
<ele>188</ele>
<time>2022-11-17T14:29:16Z</time></trkpt>
<trkpt lat="52.359765" lon="-1.993568">
<ele>176</ele>
<time>2022-11-17T14:30:40Z</time></trkpt>
<trkpt lat="52.359567" lon="-1.992158">
<ele>170</ele>
<time>2022-11-17T14:31:52Z</time></trkpt>
<trkpt lat="52.358866" lon="-1.991204">
<ele>167</ele>
<time>2022-11-17T14:33:13Z</time></trkpt>
<trkpt lat="52.359504" lon="-1.990969">
<ele>165</ele>
<time>2022-11-17T14:34:13Z</time></trkpt>
<trkpt lat="52.359073" lon="-1.989119">
<ele>163</ele>
<time>2022-11-17T14:36:10Z</time></trkpt>
<trkpt lat="52.359072" lon="-1.988532">
<ele>163</ele>
<time>2022-11-17T14:36:48Z</time></trkpt>
<trkpt lat="52.36007" lon="-1.985756">
<ele>161</ele>
<time>2022-11-17T14:40:04Z</time></trkpt>
<trkpt lat="52.359872" lon="-1.98511">
<ele>162</ele>
<time>2022-11-17T14:40:53Z</time></trkpt>
<trkpt lat="52.359539" lon="-1.98254">
<ele>161</ele>
<time>2022-11-17T14:43:41Z</time></trkpt>
<trkpt lat="52.358289" lon="-1.979413">
<ele>158</ele>
<time>2022-11-17T14:47:31Z</time></trkpt>
<trkpt lat="52.357318" lon="-1.978312">
<ele>166</ele>
<time>2022-11-17T14:50:08Z</time></trkpt>
<trkpt lat="52.355682" lon="-1.977755">
<ele>172</ele>
<time>2022-11-17T14:53:29Z</time></trkpt>
<trkpt lat="52.356472" lon="-1.9736">
<ele>151</ele>
<time>2022-11-17T14:57:11Z</time></trkpt>
<trkpt lat="52.356472" lon="-1.973056">
<ele>148</ele>
<time>2022-11-17T14:57:38Z</time></trkpt>
<trkpt lat="52.353018" lon="-1.966775">
<ele>125</ele>
<time>2022-11-17T15:05:20Z</time></trkpt>
<trkpt lat="52.352783" lon="-1.962194">
<ele>120</ele>
<time>2022-11-17T15:09:47Z</time></trkpt>
<trkpt lat="52.353106" lon="-1.961239">
<ele>119</ele>
<time>2022-11-17T15:10:53Z</time></trkpt>
<trkpt lat="52.352566" lon="-1.960109">
<ele>118</ele>
<time>2022-11-17T15:12:17Z</time></trkpt>
<trkpt lat="52.351847" lon="-1.959185">
<ele>119</ele>
<time>2022-11-17T15:13:44Z</time></trkpt>
<trkpt lat="52.351658" lon="-1.958392">
<ele>116</ele>
<time>2022-11-17T15:14:33Z</time></trkpt>
<trkpt lat="52.351999" lon="-1.957174">
<ele>116</ele>
<time>2022-11-17T15:16:08Z</time></trkpt>
<trkpt lat="52.353113" lon="-1.955396">
<ele>121</ele>
<time>2022-11-17T15:19:09Z</time></trkpt>
<trkpt lat="52.355423" lon="-1.953235">
<ele>121</ele>
<time>2022-11-17T15:23:47Z</time></trkpt>
<trkpt lat="52.357274" lon="-1.950723">
<ele>125</ele>
<time>2022-11-17T15:28:16Z</time></trkpt>
<trkpt lat="52.358396" lon="-1.947652">
<ele>128</ele>
<time>2022-11-17T15:32:11Z</time></trkpt>
<trkpt lat="52.358683" lon="-1.94611">
<ele>129</ele>
<time>2022-11-17T15:33:48Z</time></trkpt>
<trkpt lat="52.358528" lon="-1.941485">
<ele>119</ele>
<time>2022-11-17T15:38:10Z</time></trkpt>
<trkpt lat="52.358914" lon="-1.938871">
<ele>121</ele>
<time>2022-11-17T15:41:14Z</time></trkpt>
<trkpt lat="52.358841" lon="-1.937594">
<ele>121</ele>
<time>2022-11-17T15:42:32Z</time></trkpt>
<trkpt lat="52.359164" lon="-1.935831">
<ele>125</ele>
<time>2022-11-17T15:44:47Z</time></trkpt>
<trkpt lat="52.359747" lon="-1.934846">
<ele>129</ele>
<time>2022-11-17T15:46:46Z</time></trkpt>
<trkpt lat="52.36123" lon="-1.933317">
<ele>134</ele>
<time>2022-11-17T15:50:21Z</time></trkpt>
<trkpt lat="52.362406" lon="-1.930554">
<ele>141</ele>
<time>2022-11-17T15:54:26Z</time></trkpt>
<trkpt lat="52.363736" lon="-1.929172">
<ele>142</ele>
<time>2022-11-17T15:57:17Z</time></trkpt>
<trkpt lat="52.364185" lon="-1.928378">
<ele>144</ele>
<time>2022-11-17T15:58:44Z</time></trkpt>
<trkpt lat="52.364391" lon="-1.926645">
<ele>148</ele>
<time>2022-11-17T16:00:55Z</time></trkpt>
<trkpt lat="52.364227" lon="-1.924031">
<ele>150</ele>
<time>2022-11-17T16:03:38Z</time></trkpt>
<trkpt lat="52.364657" lon="-1.921974">
<ele>146</ele>
<time>2022-11-17T16:05:52Z</time></trkpt>
<trkpt lat="52.364791" lon="-1.919933">
<ele>149</ele>
<time>2022-11-17T16:08:10Z</time></trkpt>
<trkpt lat="52.364439" lon="-1.917731">
<ele>155</ele>
<time>2022-11-17T16:11:19Z</time></trkpt>
<trkpt lat="52.364419" lon="-1.91519">
<ele>174</ele>
<time>2022-11-17T16:15:58Z</time></trkpt>
<trkpt lat="52.364696" lon="-1.913266">
<ele>184</ele>
<time>2022-11-17T16:19:05Z</time></trkpt>
<trkpt lat="52.3647049" lon="-1.9131503">
<ele>184</ele>
<time>2022-11-17T16:19:13Z</time></trkpt>
<trkpt lat="52.364805" lon="-1.911603">
<ele>187</ele>
<time>2022-11-17T16:21:01Z</time></trkpt>
<trkpt lat="52.363322" lon="-1.909749">
<ele>181</ele>
<time>2022-11-17T16:23:56Z</time></trkpt>
<trkpt lat="52.363079" lon="-1.909383">
<ele>179</ele>
<time>2022-11-17T16:24:26Z</time></trkpt>
<trkpt lat="52.362618" lon="-1.908789">
<ele>177</ele>
<time>2022-11-17T16:25:19Z</time></trkpt>
<trkpt lat="52.36222" lon="-1.908229">
<ele>175</ele>
<time>2022-11-17T16:26:06Z</time></trkpt>
<trkpt lat="52.361955" lon="-1.907773">
<ele>173</ele>
<time>2022-11-17T16:26:41Z</time></trkpt>
<trkpt lat="52.36011" lon="-1.904141">
<ele>161</ele>
<time>2022-11-17T16:31:00Z</time></trkpt>
<trkpt lat="52.359805" lon="-1.903242">
<ele>161</ele>
<time>2022-11-17T16:32:00Z</time></trkpt>
<trkpt lat="52.35959" lon="-1.902373">
<ele>159</ele>
<time>2022-11-17T16:32:55Z</time></trkpt>
<trkpt lat="52.359361" lon="-1.900676">
<ele>157</ele>
<time>2022-11-17T16:34:38Z</time></trkpt>
<trkpt lat="52.359228" lon="-1.899006">
<ele>156</ele>
<time>2022-11-17T16:36:18Z</time></trkpt>
<trkpt lat="52.359216" lon="-1.898682">
<ele>156</ele>
<time>2022-11-17T16:36:38Z</time></trkpt>
<trkpt lat="52.359262" lon="-1.896694">
<ele>154</ele>
<time>2022-11-17T16:38:35Z</time></trkpt>
<trkpt lat="52.359327" lon="-1.893926">
<ele>154</ele>
<time>2022-11-17T16:41:23Z</time></trkpt>
<trkpt lat="52.35938" lon="-1.893382">
<ele>154</ele>
<time>2022-11-17T16:41:56Z</time></trkpt>
<trkpt lat="52.359439" lon="-1.893125">
<ele>154</ele>
<time>2022-11-17T16:42:13Z</time></trkpt>
<trkpt lat="52.359544" lon="-1.892835">
<ele>155</ele>
<time>2022-11-17T16:42:34Z</time></trkpt>
<trkpt lat="52.35996" lon="-1.892103">
<ele>155</ele>
<time>2022-11-17T16:43:35Z</time></trkpt>
<trkpt lat="52.360192" lon="-1.891574">
<ele>154</ele>
<time>2022-11-17T16:44:15Z</time></trkpt>
<trkpt lat="52.360483" lon="-1.890848">
<ele>154</ele>
<time>2022-11-17T16:45:08Z</time></trkpt>
<trkpt lat="52.360755" lon="-1.890358">
<ele>154</ele>
<time>2022-11-17T16:45:48Z</time></trkpt>
<trkpt lat="52.360797" lon="-1.89022">
<ele>154</ele>
<time>2022-11-17T16:45:58Z</time></trkpt>
<trkpt lat="52.360842" lon="-1.889933">
<ele>154</ele>
<time>2022-11-17T16:46:16Z</time></trkpt>
<trkpt lat="52.360952" lon="-1.889072">
<ele>155</ele>
<time>2022-11-17T16:47:16Z</time></trkpt>
<trkpt lat="52.361393" lon="-1.889143">
<ele>156</ele>
<time>2022-11-17T16:48:05Z</time></trkpt>
<trkpt lat="52.362539" lon="-1.889149">
<ele>158</ele>
<time>2022-11-17T16:50:25Z</time></trkpt>
<trkpt lat="52.363437" lon="-1.889098">
<ele>162</ele>
<time>2022-11-17T16:52:16Z</time></trkpt>
<trkpt lat="52.364087" lon="-1.889034">
<ele>165</ele>
<time>2022-11-17T16:53:35Z</time></trkpt>
<trkpt lat="52.364279" lon="-1.888889">
<ele>165</ele>
<time>2022-11-17T16:54:01Z</time></trkpt>
<trkpt lat="52.364333" lon="-1.888754">
<ele>165</ele>
<time>2022-11-17T16:54:12Z</time></trkpt>
<trkpt lat="52.364343" lon="-1.888678">
<ele>165</ele>
<time>2022-11-17T16:54:17Z</time></trkpt>
<trkpt lat="52.364332" lon="-1.888252">
<ele>165</ele>
<time>2022-11-17T16:54:43Z</time></trkpt>
<trkpt lat="52.364343" lon="-1.887659">
<ele>165</ele>
<time>2022-11-17T16:55:18Z</time></trkpt>
<trkpt lat="52.364394" lon="-1.886992">
<ele>164</ele>
<time>2022-11-17T16:55:59Z</time></trkpt>
<trkpt lat="52.364499" lon="-1.886261">
<ele>164</ele>
<time>2022-11-17T16:56:44Z</time></trkpt>
<trkpt lat="52.364772" lon="-1.885099">
<ele>164</ele>
<time>2022-11-17T16:57:58Z</time></trkpt>
<trkpt lat="52.364839" lon="-1.884541">
<ele>163</ele>
<time>2022-11-17T16:58:32Z</time></trkpt>
<trkpt lat="52.36496" lon="-1.883767">
<ele>162</ele>
<time>2022-11-17T16:59:19Z</time></trkpt>
<trkpt lat="52.365179" lon="-1.882919">
<ele>160</ele>
<time>2022-11-17T17:00:12Z</time></trkpt>
<trkpt lat="52.365729" lon="-1.881622">
<ele>159</ele>
<time>2022-11-17T17:01:45Z</time></trkpt>
<trkpt lat="52.366066" lon="-1.880755">
<ele>159</ele>
<time>2022-11-17T17:02:47Z</time></trkpt>
<trkpt lat="52.366198" lon="-1.880468">
<ele>159</ele>
<time>2022-11-17T17:03:08Z</time></trkpt>
<trkpt lat="52.366372" lon="-1.880246">
<ele>158</ele>
<time>2022-11-17T17:03:29Z</time></trkpt>
<trkpt lat="52.366721" lon="-1.879917">
<ele>158</ele>
<time>2022-11-17T17:04:07Z</time></trkpt>
<trkpt lat="52.367143" lon="-1.879563">
<ele>156</ele>
<time>2022-11-17T17:04:52Z</time></trkpt>
<trkpt lat="52.367869" lon="-1.878624">
<ele>156</ele>
<time>2022-11-17T17:06:32Z</time></trkpt>
<trkpt lat="52.368392" lon="-1.877813">
<ele>158</ele>
<time>2022-11-17T17:07:52Z</time></trkpt>
<trkpt lat="52.368771" lon="-1.877311">
<ele>160</ele>
<time>2022-11-17T17:08:46Z</time></trkpt>
<trkpt lat="52.368866" lon="-1.877236">
<ele>161</ele>
<time>2022-11-17T17:08:57Z</time></trkpt>
<trkpt lat="52.369003" lon="-1.876212">
<ele>160</ele>
<time>2022-11-17T17:10:07Z</time></trkpt>
<trkpt lat="52.368988" lon="-1.87589">
<ele>159</ele>
<time>2022-11-17T17:10:25Z</time></trkpt>
<trkpt lat="52.368946" lon="-1.875548">
<ele>158</ele>
<time>2022-11-17T17:10:44Z</time></trkpt>
<trkpt lat="52.368965" lon="-1.875304">
<ele>158</ele>
<time>2022-11-17T17:10:58Z</time></trkpt>
<trkpt lat="52.3690201" lon="-1.8752386">
<ele>158</ele>
<time>2022-11-17T17:11:04Z</time></trkpt>
<trkpt lat="52.369085" lon="-1.874454">
<ele>156</ele>
<time>2022-11-17T17:11:48Z</time></trkpt>
<trkpt lat="52.368084" lon="-1.872415">
<ele>149</ele>
<time>2022-11-17T17:14:11Z</time></trkpt>
<trkpt lat="52.36855" lon="-1.870769">
<ele>149</ele>
<time>2022-11-17T17:16:02Z</time></trkpt>
<trkpt lat="52.368673" lon="-1.867948">
<ele>153</ele>
<time>2022-11-17T17:19:22Z</time></trkpt>
<trkpt lat="52.367633" lon="-1.863031">
<ele>157</ele>
<time>2022-11-17T17:25:15Z</time></trkpt>
<trkpt lat="52.367075" lon="-1.862402">
<ele>157</ele>
<time>2022-11-17T17:26:22Z</time></trkpt>
<trkpt lat="52.3685" lon="-1.858535">
<ele>153</ele>
<time>2022-11-17T17:30:49Z</time></trkpt>
<trkpt lat="52.369818" lon="-1.855563">
<ele>156</ele>
<time>2022-11-17T17:34:52Z</time></trkpt>
<trkpt lat="52.367269" lon="-1.851665">
<ele>158</ele>
<time>2022-11-17T17:41:08Z</time></trkpt>
<trkpt lat="52.367326" lon="-1.846583">
<ele>149</ele>
<time>2022-11-17T17:45:58Z</time></trkpt>
<trkpt lat="52.36708" lon="-1.844587">
<ele>149</ele>
<time>2022-11-17T17:48:10Z</time></trkpt>
<trkpt lat="52.366905" lon="-1.841195">
<ele>149</ele>
<time>2022-11-17T17:51:45Z</time></trkpt>
<trkpt lat="52.36734" lon="-1.837022">
<ele>143</ele>
<time>2022-11-17T17:55:49Z</time></trkpt>
<trkpt lat="52.367519" lon="-1.836566">
<ele>143</ele>
<time>2022-11-17T17:56:22Z</time></trkpt>
</trkseg>
</trk>
</gpx>